createdAt,value
2023-03-17T00:01:54.771Z,2.81
2023-03-17T00:04:27.677Z,2.44
2023-03-17T00:06:55.059Z,2.75
2023-03-17T00:09:22.697Z,2.89
2023-03-17T00:11:50.416Z,2.71
2023-03-17T00:14:18.177Z,2.86
2023-03-17T00:16:49.997Z,3.06
2023-03-17T00:19:31.496Z,3.04
2023-03-17T00:22:00.159Z,3.02
2023-03-17T00:24:27.696Z,2.78
2023-03-17T00:26:54.615Z,2.29
2023-03-17T00:29:21.705Z,2.43
2023-03-17T00:31:50.923Z,2.84
2023-03-17T00:34:19.214Z,2.76
2023-03-17T00:36:49.885Z,2.84
2023-03-17T00:39:18.764Z,2.62
2023-03-17T00:44:13.189Z,2.24
2023-03-17T00:46:41.889Z,2.91
2023-03-17T00:49:18.839Z,2.88
2023-03-17T00:51:46.581Z,2.85
2023-03-17T00:54:15.660Z,2.52
2023-03-17T00:56:44.021Z,2.95
2023-03-17T00:59:37.410Z,2.74
2023-03-17T01:02:04.624Z,2.96
2023-03-17T01:04:32.373Z,2.64
2023-03-17T01:07:00.054Z,2.87
2023-03-17T01:09:34.129Z,2.38
2023-03-17T01:12:01.661Z,2.37
2023-03-17T01:14:29.340Z,2.46
2023-03-17T01:16:56.706Z,2.90
2023-03-17T01:19:24.024Z,2.46
2023-03-17T01:21:51.127Z,2.55
2023-03-17T01:24:18.073Z,2.50
2023-03-17T01:26:45.197Z,2.78
2023-03-17T01:29:15.210Z,2.42
2023-03-17T01:31:42.353Z,2.60
2023-03-17T01:34:10.235Z,2.88
2023-03-17T01:36:37.687Z,2.88
2023-03-17T01:39:05.490Z,2.66
2023-03-17T01:41:37.698Z,2.69
2023-03-17T01:44:05.113Z,2.42
2023-03-17T01:46:35.528Z,2.79
2023-03-17T01:49:17.815Z,2.74
2023-03-17T01:51:57.729Z,2.67
2023-03-17T01:54:31.160Z,2.67
2023-03-17T01:57:04.073Z,2.17
2023-03-17T01:59:35.981Z,2.36
2023-03-17T02:02:06.870Z,2.62
2023-03-17T02:04:42.272Z,2.66
2023-03-17T02:07:10.381Z,2.64
2023-03-17T02:09:41.607Z,2.18
2023-03-17T02:12:10.422Z,2.30
2023-03-17T02:14:37.582Z,2.64
2023-03-17T02:17:04.634Z,2.02
2023-03-17T02:19:31.762Z,2.11
2023-03-17T02:22:00.254Z,2.27
2023-03-17T02:24:37.806Z,2.59
2023-03-17T02:27:13.075Z,2.49
2023-03-17T02:29:40.534Z,2.45
2023-03-17T02:32:10.364Z,2.61
2023-03-17T02:34:37.507Z,2.31
2023-03-17T02:37:05.883Z,2.55
2023-03-17T02:39:33.072Z,2.40
2023-03-17T02:42:00.212Z,2.10
2023-03-17T02:44:27.267Z,2.40
2023-03-17T02:46:54.356Z,2.43
2023-03-17T02:49:22.372Z,2.27
2023-03-17T02:51:49.431Z,2.26
2023-03-17T02:54:16.370Z,2.50
2023-03-17T02:56:43.564Z,2.36
2023-03-17T02:59:10.665Z,2.40
2023-03-17T03:01:39.622Z,2.39
2023-03-17T03:04:07.245Z,1.93
2023-03-17T03:06:34.739Z,2.34
2023-03-17T03:09:01.893Z,2.23
2023-03-17T03:11:29.488Z,2.39
2023-03-17T03:13:56.570Z,2.06
2023-03-17T03:16:23.601Z,2.18
2023-03-17T03:18:50.605Z,2.20
2023-03-17T03:21:17.607Z,1.98
2023-03-17T03:23:44.690Z,2.14
2023-03-17T03:26:12.435Z,1.31
2023-03-17T03:28:39.454Z,2.12
2023-03-17T03:31:07.660Z,2.13
2023-03-17T03:33:35.085Z,2.17
2023-03-17T03:36:02.363Z,2.24
2023-03-17T03:38:29.785Z,1.74
2023-03-17T03:40:56.920Z,2.14
2023-03-17T03:43:24.376Z,1.61
2023-03-17T03:45:52.016Z,2.05
2023-03-17T03:48:19.020Z,1.76
2023-03-17T03:50:45.969Z,1.60
2023-03-17T03:53:13.738Z,1.46
2023-03-17T03:55:41.053Z,1.40
2023-03-17T03:58:08.985Z,1.83
2023-03-17T04:00:36.162Z,1.68
2023-03-17T04:03:03.206Z,1.77
2023-03-17T04:05:30.367Z,1.42
2023-03-17T04:07:57.297Z,1.40
2023-03-17T04:10:24.323Z,1.68
2023-03-17T04:12:51.289Z,1.62
2023-03-17T04:15:19.973Z,1.69
2023-03-17T04:17:47.730Z,1.68
2023-03-17T04:20:18.698Z,1.32
2023-03-17T04:22:45.623Z,1.35
2023-03-17T04:25:14.646Z,1.45
2023-03-17T04:27:42.983Z,0.83
2023-03-17T04:30:13.910Z,1.04
2023-03-17T04:32:41.979Z,1.25
2023-03-17T04:35:13.876Z,1.19
2023-03-17T04:37:41.238Z,1.35
2023-03-17T04:40:10.159Z,1.37
2023-03-17T04:42:38.146Z,1.09
2023-03-17T04:45:06.804Z,1.46
2023-03-17T04:47:34.229Z,1.27
2023-03-17T04:50:02.139Z,1.38
2023-03-17T04:52:29.305Z,1.25
2023-03-17T04:54:56.457Z,1.54
2023-03-17T04:57:24.676Z,1.16
2023-03-17T04:59:51.876Z,1.42
2023-03-17T05:02:19.100Z,1.24
2023-03-17T05:04:46.604Z,0.91
2023-03-17T05:07:14.549Z,1.19
2023-03-17T05:09:42.151Z,0.90
2023-03-17T05:12:10.188Z,1.34
2023-03-17T05:14:37.854Z,0.94
2023-03-17T05:17:05.043Z,1.46
2023-03-17T05:19:32.192Z,1.10
2023-03-17T05:21:59.393Z,0.69
2023-03-17T05:24:27.143Z,0.77
2023-03-17T05:26:54.312Z,1.32
2023-03-17T05:29:21.233Z,1.18
2023-03-17T05:31:48.568Z,1.05
2023-03-17T05:34:16.188Z,1.48
2023-03-17T05:36:43.771Z,1.49
2023-03-17T05:39:11.901Z,1.07
2023-03-17T05:41:39.665Z,1.26
2023-03-17T05:44:06.720Z,1.36
2023-03-17T05:46:33.859Z,1.02
2023-03-17T05:49:00.926Z,0.87
2023-03-17T05:51:27.872Z,0.77
2023-03-17T05:53:54.780Z,1.45
2023-03-17T05:56:22.006Z,1.32
2023-03-17T05:58:49.002Z,1.30
2023-03-17T06:01:16.133Z,1.33
2023-03-17T06:03:43.362Z,0.49
2023-03-17T06:06:10.657Z,1.19
2023-03-17T06:09:02.886Z,0.70
2023-03-17T06:11:29.822Z,1.36
2023-03-17T06:13:57.206Z,0.91
2023-03-17T06:16:24.255Z,1.32
2023-03-17T06:18:51.310Z,1.31
2023-03-17T06:21:18.273Z,1.20
2023-03-17T06:23:45.464Z,0.90
2023-03-17T06:26:12.677Z,1.10
2023-03-17T06:28:39.630Z,0.79
2023-03-17T06:31:07.523Z,1.06
2023-03-17T06:33:35.492Z,0.99
2023-03-17T06:36:03.451Z,1.41
2023-03-17T06:38:30.523Z,0.96
2023-03-17T06:40:58.127Z,0.94
2023-03-17T06:43:25.287Z,0.96
2023-03-17T06:45:52.951Z,1.22
2023-03-17T06:48:20.109Z,1.18
2023-03-17T06:50:50.325Z,1.08
2023-03-17T06:53:17.448Z,1.33
2023-03-17T06:55:45.138Z,1.35
2023-03-17T06:58:13.409Z,1.35
2023-03-17T07:00:40.715Z,1.12
2023-03-17T07:03:10.180Z,0.76
2023-03-17T07:05:39.440Z,1.23
2023-03-17T07:08:06.894Z,1.39
2023-03-17T07:10:34.748Z,1.38
2023-03-17T07:13:02.563Z,1.34
2023-03-17T07:15:34.917Z,1.29
2023-03-17T07:18:02.603Z,1.20
2023-03-17T07:20:29.881Z,1.18
2023-03-17T07:22:57.567Z,1.54
2023-03-17T07:25:24.833Z,1.52
2023-03-17T07:27:52.184Z,1.08
2023-03-17T07:30:19.537Z,1.48
2023-03-17T07:32:47.407Z,1.67
2023-03-17T07:35:15.706Z,1.41
2023-03-17T07:37:43.243Z,1.80
2023-03-17T07:40:11.285Z,1.71
2023-03-17T07:42:38.823Z,1.80
2023-03-17T07:45:08.060Z,1.55
2023-03-17T07:47:35.372Z,1.92
2023-03-17T07:50:02.728Z,1.28
2023-03-17T07:52:29.917Z,2.03
2023-03-17T07:54:58.392Z,1.72
2023-03-17T07:57:25.655Z,1.91
2023-03-17T07:59:52.792Z,2.12
2023-03-17T08:02:20.145Z,1.91
2023-03-17T08:04:47.413Z,2.35
2023-03-17T08:07:15.748Z,2.37
2023-03-17T08:09:42.880Z,2.46
2023-03-17T08:12:10.459Z,2.43
2023-03-17T08:14:37.668Z,2.38
2023-03-17T08:17:05.067Z,2.24
2023-03-17T08:19:32.582Z,2.52
2023-03-17T08:21:59.663Z,2.30
2023-03-17T08:24:27.316Z,1.79
2023-03-17T08:26:54.534Z,2.18
2023-03-17T08:29:21.550Z,2.44
2023-03-17T08:31:48.707Z,1.96
2023-03-17T08:34:16.718Z,2.37
2023-03-17T08:36:46.877Z,2.67
2023-03-17T08:39:14.235Z,2.46
2023-03-17T08:41:41.849Z,2.68
2023-03-17T08:44:09.407Z,2.34
2023-03-17T08:46:37.035Z,1.93
2023-03-17T08:49:04.333Z,2.38
2023-03-17T08:51:34.848Z,2.74
2023-03-17T08:54:02.523Z,2.78
2023-03-17T08:56:29.813Z,2.79
2023-03-17T08:58:57.339Z,2.24
2023-03-17T09:01:24.944Z,2.74
2023-03-17T09:03:54.969Z,2.44
2023-03-17T09:06:23.333Z,2.60
2023-03-17T09:08:55.609Z,2.66
2023-03-17T09:11:30.283Z,2.72
2023-03-17T09:13:57.455Z,2.49
2023-03-17T09:16:25.018Z,2.47
2023-03-17T09:18:52.279Z,2.78
2023-03-17T09:21:19.781Z,2.38
2023-03-17T09:23:50.001Z,2.52
2023-03-17T09:26:17.194Z,2.66
2023-03-17T09:28:44.910Z,2.58
2023-03-17T09:31:13.140Z,2.94
2023-03-17T09:33:41.763Z,2.70
2023-03-17T09:36:10.989Z,3.15
2023-03-17T09:38:38.721Z,2.99
2023-03-17T09:41:29.311Z,3.30
2023-03-17T09:44:18.252Z,3.26
2023-03-17T09:47:07.453Z,3.27
2023-03-17T09:49:51.964Z,3.26
2023-03-17T09:52:27.431Z,2.80
2023-03-17T09:54:54.989Z,2.80
2023-03-17T09:57:30.710Z,2.64
2023-03-17T10:00:05.859Z,3.07
2023-03-17T10:02:40.054Z,3.16
2023-03-17T10:05:19.902Z,2.96
2023-03-17T10:07:59.174Z,3.27
2023-03-17T10:10:30.620Z,3.30
2023-03-17T10:13:16.272Z,3.34
2023-03-17T10:15:56.248Z,2.99
2023-03-17T10:18:28.109Z,3.34
2023-03-17T10:21:00.203Z,3.13
2023-03-17T10:23:31.649Z,3.12
2023-03-17T10:26:07.775Z,2.82
2023-03-17T10:28:36.556Z,2.86
2023-03-17T10:31:19.778Z,2.71
2023-03-17T10:33:52.556Z,3.00
2023-03-17T10:36:38.202Z,3.19
2023-03-17T10:39:07.258Z,3.41
2023-03-17T10:41:41.155Z,3.35
2023-03-17T10:44:29.696Z,3.49
2023-03-17T10:46:57.359Z,3.55
2023-03-17T10:49:26.749Z,3.12
2023-03-17T10:51:55.359Z,3.27
2023-03-17T10:54:26.485Z,3.55
2023-03-17T10:57:02.867Z,3.36
2023-03-17T10:59:37.739Z,3.42
2023-03-17T11:02:19.011Z,3.72
2023-03-17T11:04:46.300Z,3.48
2023-03-17T11:07:20.478Z,3.24
2023-03-17T11:09:54.768Z,3.59
2023-03-17T11:12:26.646Z,3.56
2023-03-17T11:15:03.496Z,3.50
2023-03-17T11:17:40.373Z,3.81
2023-03-17T11:20:13.996Z,3.79
2023-03-17T11:22:43.907Z,3.71
2023-03-17T11:25:19.524Z,3.76
2023-03-17T11:28:12.204Z,3.68
2023-03-17T11:30:52.453Z,3.43
2023-03-17T11:34:00.380Z,3.74
2023-03-17T11:36:43.539Z,3.78
2023-03-17T11:39:17.605Z,3.78
2023-03-17T11:42:00.462Z,3.79
2023-03-17T11:45:00.322Z,3.64
2023-03-17T11:47:45.190Z,3.84
2023-03-17T11:50:12.438Z,3.90
2023-03-17T11:53:11.227Z,3.55
2023-03-17T11:55:45.561Z,3.78
2023-03-17T11:58:37.189Z,3.57
2023-03-17T12:01:09.174Z,3.88
2023-03-17T12:03:49.222Z,3.94
2023-03-17T12:06:21.843Z,3.49
2023-03-17T12:09:00.092Z,3.93
2023-03-17T12:11:31.972Z,3.93
2023-03-17T12:14:21.970Z,3.96
2023-03-17T12:17:05.456Z,3.90
2023-03-17T12:19:46.171Z,3.99
2023-03-17T12:22:19.436Z,3.96
2023-03-17T12:25:09.311Z,3.89
2023-03-17T12:28:04.507Z,3.42
2023-03-17T12:30:54.638Z,3.94
2023-03-17T12:33:31.748Z,3.74
2023-03-17T12:36:01.307Z,4.06
2023-03-17T12:38:39.986Z,4.11
2023-03-17T12:41:27.178Z,4.11
2023-03-17T12:43:59.969Z,3.96
2023-03-17T12:46:43.756Z,3.51
2023-03-17T12:49:43.136Z,3.46
2023-03-17T12:52:24.583Z,3.89
2023-03-17T12:54:53.890Z,3.90
2023-03-17T12:57:27.373Z,3.75
2023-03-17T13:00:01.264Z,4.06
2023-03-17T13:02:28.554Z,4.09
2023-03-17T13:05:00.726Z,4.14
2023-03-17T13:07:55.945Z,4.10
2023-03-17T13:10:48.877Z,4.11
2023-03-17T13:13:43.711Z,4.10
2023-03-17T13:16:41.772Z,4.03
2023-03-17T13:19:32.715Z,4.02
2023-03-17T13:22:00.685Z,4.05
2023-03-17T13:24:52.069Z,4.04
2023-03-17T13:27:31.447Z,3.91
2023-03-17T13:30:00.309Z,3.96
2023-03-17T13:32:27.282Z,3.95
2023-03-17T13:35:16.817Z,3.92
2023-03-17T13:38:13.555Z,3.79
2023-03-17T13:41:05.924Z,3.84
2023-03-17T13:43:54.661Z,3.93
2023-03-17T13:46:36.821Z,3.83
2023-03-17T13:49:24.268Z,3.83
2023-03-17T13:52:03.742Z,3.60
2023-03-17T13:54:40.798Z,3.86
2023-03-17T13:57:29.299Z,3.57
2023-03-17T14:00:23.572Z,3.87
2023-03-17T14:02:59.332Z,3.74
2023-03-17T14:05:30.943Z,3.43
2023-03-17T14:08:16.876Z,3.62
2023-03-17T14:10:52.668Z,3.63
2023-03-17T14:13:37.994Z,3.04
2023-03-17T14:16:11.864Z,3.72
2023-03-17T14:18:42.546Z,3.45
2023-03-17T14:21:32.809Z,3.74
2023-03-17T14:24:02.748Z,3.47
2023-03-17T14:26:31.643Z,2.97
2023-03-17T14:29:04.974Z,3.71
2023-03-17T14:31:32.477Z,3.79
2023-03-17T14:34:01.373Z,3.74
2023-03-17T14:36:32.419Z,3.86
2023-03-17T14:38:59.534Z,3.13
2023-03-17T14:41:28.652Z,3.55
2023-03-17T14:44:00.953Z,3.95
2023-03-17T14:46:41.331Z,3.79
2023-03-17T14:49:23.210Z,3.75
2023-03-17T14:51:53.582Z,3.92
2023-03-17T14:54:24.372Z,3.87
2023-03-17T14:57:02.402Z,3.88
2023-03-17T14:59:37.120Z,3.79
2023-03-17T15:02:17.271Z,3.75
2023-03-17T15:05:30.998Z,3.64
2023-03-17T15:07:58.266Z,3.27
2023-03-17T15:10:34.464Z,3.60
2023-03-17T15:13:04.968Z,3.59
2023-03-17T15:15:35.592Z,3.59
2023-03-17T15:18:12.863Z,3.54
2023-03-17T15:20:43.438Z,3.33
2023-03-17T15:23:25.393Z,3.66
2023-03-17T15:25:57.152Z,3.25
2023-03-17T15:28:31.660Z,2.85
2023-03-17T15:31:13.451Z,3.68
2023-03-17T15:33:42.227Z,3.61
2023-03-17T15:36:31.365Z,3.70
2023-03-17T15:38:59.217Z,3.42
2023-03-17T15:41:26.514Z,3.43
2023-03-17T15:43:53.875Z,3.17
2023-03-17T15:46:31.230Z,3.66
2023-03-17T15:48:58.697Z,2.93
2023-03-17T15:51:26.977Z,3.24
2023-03-17T15:53:54.090Z,3.64
2023-03-17T15:56:22.441Z,3.58
2023-03-17T15:58:52.457Z,3.66
2023-03-17T16:01:20.964Z,3.62
2023-03-17T16:03:49.046Z,3.22
2023-03-17T16:06:19.056Z,3.52
2023-03-17T16:08:46.571Z,3.40
2023-03-17T16:11:15.631Z,3.59
2023-03-17T16:13:42.897Z,3.18
2023-03-17T16:16:18.100Z,3.47
2023-03-17T16:18:47.107Z,3.04
2023-03-17T16:21:14.390Z,3.47
2023-03-17T16:23:41.709Z,3.50
2023-03-17T16:26:15.641Z,3.44
2023-03-17T16:28:44.792Z,3.43
2023-03-17T16:31:30.319Z,3.38
2023-03-17T16:33:58.099Z,3.33
2023-03-17T16:36:26.326Z,2.15
2023-03-17T16:38:53.931Z,3.46
2023-03-17T16:41:24.790Z,3.46
2023-03-17T16:44:02.634Z,3.52
2023-03-17T16:46:35.199Z,3.27
2023-03-17T16:49:02.737Z,3.52
2023-03-17T16:51:30.596Z,3.56
2023-03-17T16:53:57.718Z,3.46
2023-03-17T16:56:27.448Z,3.26
2023-03-17T16:58:54.606Z,3.20
2023-03-17T17:01:26.789Z,3.01
2023-03-17T17:03:54.462Z,3.56
2023-03-17T17:06:23.073Z,2.82
2023-03-17T17:08:51.400Z,3.33
2023-03-17T17:11:20.311Z,3.59
2023-03-17T17:13:48.993Z,3.11
2023-03-17T17:16:31.199Z,3.34
2023-03-17T17:18:59.422Z,3.25
2023-03-17T17:21:27.241Z,3.51
2023-03-17T17:23:55.146Z,2.96
2023-03-17T17:26:23.107Z,2.73
2023-03-17T17:28:50.314Z,3.47
2023-03-17T17:31:17.599Z,3.49
2023-03-17T17:33:45.252Z,3.28
2023-03-17T17:36:16.609Z,3.34
2023-03-17T17:38:44.145Z,3.14
2023-03-17T17:41:12.674Z,3.11
2023-03-17T17:43:40.462Z,3.01
2023-03-17T17:46:12.641Z,3.37
2023-03-17T17:48:39.842Z,3.38
2023-03-17T17:51:07.202Z,3.39
2023-03-17T17:53:34.467Z,3.32
2023-03-17T17:56:09.070Z,3.00
2023-03-17T17:58:36.134Z,3.05
2023-03-17T18:01:05.624Z,3.40
2023-03-17T18:03:33.299Z,3.24
2023-03-17T18:06:01.322Z,3.46
2023-03-17T18:08:28.496Z,3.30
2023-03-17T18:10:57.337Z,2.97
2023-03-17T18:13:25.022Z,3.33
2023-03-17T18:15:52.445Z,3.30
2023-03-17T18:18:19.648Z,3.22
2023-03-17T18:20:46.665Z,3.02
2023-03-17T18:23:13.814Z,3.29
2023-03-17T18:25:41.365Z,2.92
2023-03-17T18:28:08.469Z,2.89
2023-03-17T18:30:35.869Z,3.12
2023-03-17T18:33:09.892Z,3.04
2023-03-17T18:35:37.765Z,3.24
2023-03-17T18:38:04.954Z,3.23
2023-03-17T18:40:32.043Z,3.12
2023-03-17T18:42:59.192Z,2.96
2023-03-17T18:45:26.612Z,3.22
2023-03-17T18:47:53.668Z,2.83
2023-03-17T18:50:22.211Z,2.91
2023-03-17T18:52:50.004Z,2.49
2023-03-17T18:55:17.299Z,2.74
2023-03-17T18:57:45.077Z,2.40
2023-03-17T19:00:14.472Z,3.05
2023-03-17T19:02:41.758Z,3.05
2023-03-17T19:05:09.264Z,3.12
2023-03-17T19:07:38.997Z,3.18
2023-03-17T19:10:14.233Z,3.18
2023-03-17T19:12:42.569Z,3.15
2023-03-17T19:15:10.898Z,3.13
2023-03-17T19:17:39.090Z,3.09
2023-03-17T19:20:07.041Z,2.92
2023-03-17T19:22:35.034Z,3.15
2023-03-17T19:25:04.482Z,3.14
2023-03-17T19:27:31.655Z,3.06
2023-03-17T19:29:58.718Z,3.17
2023-03-17T19:32:25.888Z,3.02
2023-03-17T19:34:53.268Z,3.06
2023-03-17T19:37:20.818Z,3.23
2023-03-17T19:39:48.578Z,2.83
2023-03-17T19:42:16.430Z,3.28
2023-03-17T19:44:43.616Z,2.87
2023-03-17T19:47:10.641Z,3.28
2023-03-17T19:49:38.331Z,2.98
2023-03-17T19:52:06.855Z,3.27
2023-03-17T19:54:34.705Z,3.43
2023-03-17T19:57:01.798Z,2.90
2023-03-17T19:59:29.022Z,3.02
2023-03-17T20:01:56.319Z,3.06
2023-03-17T20:04:23.508Z,3.24
2023-03-17T20:06:55.899Z,3.06
2023-03-17T20:09:25.576Z,3.10
2023-03-17T20:11:54.001Z,3.27
2023-03-17T20:14:21.191Z,3.30
2023-03-17T20:16:50.365Z,3.33
2023-03-17T20:19:17.574Z,3.13
2023-03-17T20:21:45.213Z,3.02
2023-03-17T20:24:14.731Z,3.28
2023-03-17T20:26:43.600Z,3.12
2023-03-17T20:29:14.592Z,3.19
2023-03-17T20:31:42.909Z,3.22
2023-03-17T20:34:10.767Z,3.21
2023-03-17T20:36:42.539Z,3.31
2023-03-17T20:39:13.962Z,3.44
2023-03-17T20:41:41.552Z,3.41
2023-03-17T20:44:08.711Z,3.36
2023-03-17T20:46:36.151Z,3.17
2023-03-17T20:49:04.289Z,3.21
2023-03-17T20:51:32.425Z,3.17
2023-03-17T20:54:00.893Z,3.27
2023-03-17T20:56:29.952Z,3.23
2023-03-17T20:58:58.726Z,3.48
2023-03-17T21:01:26.884Z,3.39
2023-03-17T21:03:54.092Z,3.05
2023-03-17T21:06:26.129Z,2.86
2023-03-17T21:08:53.634Z,3.29
2023-03-17T21:11:23.205Z,3.06
2023-03-17T21:13:50.623Z,3.38
2023-03-17T21:16:24.120Z,3.54
2023-03-17T21:18:52.158Z,3.30
2023-03-17T21:21:20.012Z,3.44
2023-03-17T21:23:47.745Z,3.21
2023-03-17T21:26:15.409Z,3.26
2023-03-17T21:28:42.786Z,3.27
2023-03-17T21:31:12.417Z,3.59
2023-03-17T21:33:40.528Z,3.20
2023-03-17T21:36:08.065Z,2.75
2023-03-17T21:38:35.909Z,3.41
2023-03-17T21:41:33.656Z,3.44
2023-03-17T21:44:01.799Z,3.30
2023-03-17T21:46:29.928Z,3.45
2023-03-17T21:48:57.166Z,3.28
2023-03-17T21:51:25.422Z,3.47
2023-03-17T21:53:53.159Z,2.87
2023-03-17T21:56:21.291Z,3.08
2023-03-17T21:58:49.164Z,3.23
2023-03-17T22:01:18.060Z,3.33
2023-03-17T22:03:45.236Z,3.44
2023-03-17T22:06:22.517Z,3.08
2023-03-17T22:08:50.852Z,3.33
2023-03-17T22:11:19.455Z,2.99
2023-03-17T22:13:48.047Z,2.98
2023-03-17T22:16:16.704Z,3.38
2023-03-17T22:18:44.010Z,3.08
2023-03-17T22:21:11.476Z,3.43
2023-03-17T22:23:42.649Z,3.39
2023-03-17T22:26:15.299Z,3.23
2023-03-17T22:28:44.789Z,3.00
2023-03-17T22:31:20.805Z,3.29
2023-03-17T22:33:53.354Z,3.41
2023-03-17T22:36:21.552Z,2.73
2023-03-17T22:38:48.853Z,3.36
2023-03-17T22:41:19.282Z,3.37
2023-03-17T22:43:47.256Z,3.31
2023-03-17T22:46:15.072Z,3.34
2023-03-17T22:48:42.554Z,2.91
2023-03-17T22:51:12.263Z,3.30
2023-03-17T22:53:40.348Z,3.34
2023-03-17T22:56:08.908Z,2.97
2023-03-17T22:58:36.139Z,3.19
2023-03-17T23:01:06.685Z,3.43
2023-03-17T23:03:34.581Z,3.30
2023-03-17T23:06:04.055Z,3.14
2023-03-17T23:08:35.167Z,3.06
2023-03-17T23:11:08.724Z,3.35
2023-03-17T23:13:43.439Z,3.07
2023-03-17T23:16:10.816Z,2.90
2023-03-17T23:18:37.862Z,3.02
2023-03-17T23:21:05.894Z,3.31
2023-03-17T23:23:33.641Z,3.19
2023-03-17T23:26:00.789Z,3.21
2023-03-17T23:28:27.998Z,3.01
2023-03-17T23:30:55.483Z,2.84
2023-03-17T23:33:25.637Z,2.68
2023-03-17T23:35:53.480Z,3.07
2023-03-17T23:38:21.643Z,2.92
2023-03-17T23:40:49.826Z,3.04
2023-03-17T23:43:16.995Z,2.89
2023-03-17T23:45:44.248Z,3.17
2023-03-17T23:48:11.971Z,2.94
2023-03-17T23:50:41.185Z,2.75
2023-03-17T23:53:09.800Z,3.14
2023-03-17T23:55:36.848Z,2.54
2023-03-17T23:58:03.923Z,2.64
